Time;durP1;ratioP1;P1;durP2;ratioP2;P2;SDS_P1;SDS_P2;PMS_P1;PMS_P2;Temp;Humidity;BMP_temperature;BMP_pressure;BME280_temperature;BME280_humidity;BME280_pressure;Samples;Min_cycle;Max_cycle;Signal;HPM_P1;HPM_P2
2023/04/02 00:10:06;;;;;;;20.5;14.5;;;;;;;9.5;87.6;97620;;;;
2023/04/02 00:20:07;;;;;;;20.5;14.5;;;;;;;9.6;87.6;97620;;;;
2023/04/02 00:30:06;;;;;;;19.3;15;;;;;;;9.6;87.7;97630;;;;
2023/04/02 00:41:06;;;;;;;19.3;15;;;;;;;9.5;87.8;97630;;;;
2023/04/02 00:52:06;;;;;;;24.1;16;;;;;;;9.7;87.7;97640;;;;
2023/04/02 01:02:07;;;;;;;24.1;16;;;;;;;9.8;87.7;97650;;;;
2023/04/02 01:12:06;;;;;;;24.1;16;;;;;;;9.7;87.3;97660;;;;
2023/04/02 01:22:06;;;;;;;23.6;17.8;;;;;;;9.7;87.4;97670;;;;
2023/04/02 01:32:06;;;;;;;23.6;17.8;;;;;;;9.8;87.2;97670;;;;
2023/04/02 01:43:06;;;;;;;23.6;17.8;;;;;;;9.8;87.4;97670;;;;
2023/04/02 01:54:06;;;;;;;25;20.3;;;;;;;9.7;87.3;97670;;;;
2023/04/02 02:04:06;;;;;;;25;20.3;;;;;;;9.9;87.2;97680;;;;
2023/04/02 02:14:10;;;;;;;25;20.3;;;;;;;9.9;86.8;97690;;;;
2023/04/02 02:25:06;;;;;;;20.1;16.3;;;;;;;10;86.5;97690;;;;
2023/04/02 02:35:06;;;;;;;20.1;16.3;;;;;;;10;86.2;97690;;;;
2023/04/02 02:46:06;;;;;;;20.1;16.3;;;;;;;9.9;85.9;97700;;;;
2023/04/02 02:57:06;;;;;;;20;16;;;;;;;9.8;85.5;97710;;;;
2023/04/02 03:08:06;;;;;;;20;16;;;;;;;9.7;85.7;97720;;;;
2023/04/02 03:19:06;;;;;;;20;16;;;;;;;9.5;85.5;97720;;;;
2023/04/02 03:29:06;;;;;;;17.8;12.6;;;;;;;9.3;85.1;97730;;;;
2023/04/02 03:40:07;;;;;;;17.8;12.6;;;;;;;9.4;85.1;97740;;;;
2023/04/02 03:50:06;;;;;;;17.8;12.6;;;;;;;9.3;85;97740;;;;
2023/04/02 04:00:06;;;;;;;12.9;8.6;;;;;;;9.3;85;97760;;;;
2023/04/02 04:11:06;;;;;;;12.9;8.6;;;;;;;9.2;85.3;97770;;;;
2023/04/02 04:22:06;;;;;;;12.7;8.5;;;;;;;9.2;85.4;97780;;;;
2023/04/02 04:32:06;;;;;;;12.7;8.5;;;;;;;9.3;85.1;97790;;;;
2023/04/02 04:42:06;;;;;;;12.7;8.5;;;;;;;9.1;84.9;97800;;;;
2023/04/02 04:52:06;;;;;;;13.7;9;;;;;;;9.1;85.1;97810;;;;
2023/04/02 05:03:08;;;;;;;13.7;9;;;;;;;9.1;84.9;97820;;;;
2023/04/02 05:13:06;;;;;;;13.7;9;;;;;;;8.9;85;97830;;;;
2023/04/02 05:24:06;;;;;;;15.6;10.3;;;;;;;9;85;97840;;;;
2023/04/02 05:35:06;;;;;;;15.6;10.3;;;;;;;9;84.8;97850;;;;
2023/04/02 05:45:06;;;;;;;15.6;10.3;;;;;;;9.2;84.6;97860;;;;
2023/04/02 05:56:06;;;;;;;14.8;9.7;;;;;;;9.2;84.3;97860;;;;
2023/04/02 06:06:06;;;;;;;14.8;9.7;;;;;;;9;84.7;97870;;;;
2023/04/02 06:16:06;;;;;;;14.8;9.7;;;;;;;9.1;85.5;97870;;;;
2023/04/02 06:26:06;;;;;;;13.5;8.4;;;;;;;9.1;85.6;97880;;;;
2023/04/02 06:36:06;;;;;;;13.5;8.4;;;;;;;9.1;85.3;97890;;;;
2023/04/02 06:47:06;;;;;;;13.5;8.4;;;;;;;9;86.1;97900;;;;
2023/04/02 06:58:06;;;;;;;13.2;10.3;;;;;;;9.6;85.8;97910;;;;
2023/04/02 07:08:06;;;;;;;13.2;10.3;;;;;;;10;84.9;97910;;;;
2023/04/02 07:19:06;;;;;;;13.2;10.3;;;;;;;10.3;83.4;97920;;;;
2023/04/02 07:29:06;;;;;;;13.6;9.3;;;;;;;10.1;81.9;97930;;;;
2023/04/02 07:40:07;;;;;;;13.6;9.3;;;;;;;10.2;81.8;97950;;;;
2023/04/02 07:50:07;;;;;;;13.6;9.3;;;;;;;10.4;80.5;97960;;;;
2023/04/02 08:00:06;;;;;;;10.9;7.3;;;;;;;10.3;80;97970;;;;
2023/04/02 08:11:06;;;;;;;10.9;7.3;;;;;;;10;79.4;98000;;;;
2023/04/02 08:21:07;;;;;;;8;5.3;;;;;;;9.8;80.6;98020;;;;
2023/04/02 08:31:07;;;;;;;8;5.3;;;;;;;9.6;81;98030;;;;
2023/04/02 08:42:06;;;;;;;8;5.3;;;;;;;9.7;81.7;98050;;;;
2023/04/02 08:52:06;;;;;;;6.8;4.3;;;;;;;8.4;83.2;98090;;;;
2023/04/02 09:03:06;;;;;;;6.8;4.3;;;;;;;7.4;87.3;98100;;;;
2023/04/02 09:13:06;;;;;;;6.8;4.3;;;;;;;6.8;88.8;98130;;;;
2023/04/02 09:24:06;;;;;;;2.6;1.1;;;;;;;6.5;89.3;98150;;;;
2023/04/02 09:34:06;;;;;;;2.6;1.1;;;;;;;6.4;89.7;98170;;;;
2023/04/02 09:45:06;;;;;;;2.6;1.1;;;;;;;6.3;89.9;98190;;;;
2023/04/02 09:56:06;;;;;;;2;0.9;;;;;;;6.2;90.3;98220;;;;
2023/04/02 10:07:06;;;;;;;2;0.9;;;;;;;5.9;90.7;98240;;;;
2023/04/02 10:18:06;;;;;;;2;0.9;;;;;;;5.9;90.9;98260;;;;
2023/04/02 10:29:06;;;;;;;2.1;0.8;;;;;;;6;91;98280;;;;
2023/04/02 10:39:07;;;;;;;2.1;0.8;;;;;;;6.2;90.9;98290;;;;
2023/04/02 10:50:06;;;;;;;2.6;1.4;;;;;;;6.1;90.3;98310;;;;
2023/04/02 11:00:08;;;;;;;2.6;1.4;;;;;;;6.2;91;98330;;;;
2023/04/02 11:11:06;;;;;;;2.6;1.4;;;;;;;6.3;89.7;98350;;;;
2023/04/02 11:21:06;;;;;;;2.9;1.2;;;;;;;6.6;89.8;98350;;;;
2023/04/02 11:31:06;;;;;;;2.9;1.2;;;;;;;6.3;88.1;98370;;;;
2023/04/02 11:42:06;;;;;;;2.9;1.2;;;;;;;6.1;88;98390;;;;
2023/04/02 11:52:06;;;;;;;2;1.4;;;;;;;6;87.8;98410;;;;
2023/04/02 12:03:06;;;;;;;2;1.4;;;;;;;6.2;87.7;98420;;;;
2023/04/02 12:13:06;;;;;;;2;1.4;;;;;;;6.1;87.2;98420;;;;
2023/04/02 12:24:06;;;;;;;5.5;2;;;;;;;6.2;87.8;98430;;;;
2023/04/02 12:34:06;;;;;;;5.5;2;;;;;;;6.2;87.4;98430;;;;
2023/04/02 12:45:07;;;;;;;5.5;2;;;;;;;6.2;88.1;98440;;;;
2023/04/02 12:56:07;;;;;;;5.1;2.9;;;;;;;6.3;88;98450;;;;
2023/04/02 13:06:06;;;;;;;5.1;2.9;;;;;;;6.1;88;98460;;;;
2023/04/02 13:17:06;;;;;;;5.1;2.9;;;;;;;6;87.8;98470;;;;
2023/04/02 13:27:06;;;;;;;5.8;2.6;;;;;;;5.9;88.3;98480;;;;
2023/04/02 13:37:06;;;;;;;5.8;2.6;;;;;;;5.8;87.7;98490;;;;
2023/04/02 13:47:07;;;;;;;5.8;2.6;;;;;;;5.9;88.3;98490;;;;
2023/04/02 13:58:06;;;;;;;5.4;2.8;;;;;;;5.8;87.8;98510;;;;
2023/04/02 14:09:06;;;;;;;5.4;2.8;;;;;;;5.6;87.4;98510;;;;
2023/04/02 14:19:06;;;;;;;5.4;2.8;;;;;;;5.7;88;98520;;;;
2023/04/02 14:29:08;;;;;;;6.3;3.3;;;;;;;5.6;87.1;98540;;;;
2023/04/02 14:39:06;;;;;;;6.3;3.3;;;;;;;5.5;86.3;98550;;;;
2023/04/02 14:49:06;;;;;;;6.3;3.3;;;;;;;5.7;86.3;98560;;;;
2023/04/02 15:00:08;;;;;;;2.8;1.5;;;;;;;5.6;85.8;98570;;;;
2023/04/02 15:11:06;;;;;;;2.8;1.5;;;;;;;5.6;86.1;98580;;;;
2023/04/02 15:21:06;;;;;;;4;2;;;;;;;5.7;87.1;98590;;;;
2023/04/02 15:32:06;;;;;;;4;2;;;;;;;5.5;85.2;98610;;;;
2023/04/02 15:43:06;;;;;;;4;2;;;;;;;5.3;85.6;98630;;;;
2023/04/02 15:53:06;;;;;;;3.6;1.7;;;;;;;5.1;86.6;98640;;;;
2023/04/02 16:03:06;;;;;;;3.6;1.7;;;;;;;5.1;86.9;98650;;;;
2023/04/02 16:14:06;;;;;;;3.6;1.7;;;;;;;5.1;87;98670;;;;
2023/04/02 16:25:06;;;;;;;5.9;3.1;;;;;;;5;86.2;98680;;;;
2023/04/02 16:35:06;;;;;;;5.9;3.1;;;;;;;4.9;85.8;98690;;;;
2023/04/02 16:45:07;;;;;;;5.9;3.1;;;;;;;4.8;86;98700;;;;
2023/04/02 16:56:06;;;;;;;8.5;4.1;;;;;;;4.7;85.4;98720;;;;
2023/04/02 17:07:06;;;;;;;8.5;4.1;;;;;;;4.5;85.2;98740;;;;
2023/04/02 17:18:06;;;;;;;8.5;4.1;;;;;;;4.5;85.8;98760;;;;
2023/04/02 17:29:06;;;;;;;7.8;4.5;;;;;;;4.6;86.3;98760;;;;
2023/04/02 17:39:06;;;;;;;7.8;4.5;;;;;;;4.5;85.9;98780;;;;
2023/04/02 17:50:06;;;;;;;10.2;5.3;;;;;;;4.4;85;98790;;;;
2023/04/02 18:00:07;;;;;;;10.2;5.3;;;;;;;4.4;85.3;98800;;;;
2023/04/02 18:11:07;;;;;;;10.2;5.3;;;;;;;4.4;85.4;98810;;;;
2023/04/02 18:21:06;;;;;;;8.2;4.9;;;;;;;4.3;85.9;98820;;;;
2023/04/02 18:31:07;;;;;;;8.2;4.9;;;;;;;4.1;85.8;98840;;;;
2023/04/02 18:41:06;;;;;;;8.2;4.9;;;;;;;4;86.6;98850;;;;
2023/04/02 18:52:06;;;;;;;12.1;5.5;;;;;;;3.9;86.9;98860;;;;
2023/04/02 19:02:06;;;;;;;12.1;5.5;;;;;;;4;87;98860;;;;
2023/04/02 19:13:06;;;;;;;12.1;5.5;;;;;;;4.1;86.8;98870;;;;
2023/04/02 19:23:07;;;;;;;9.4;4.8;;;;;;;4.1;86.4;98870;;;;
2023/04/02 19:34:06;;;;;;;9.4;4.8;;;;;;;4.2;86.6;98880;;;;
2023/04/02 19:44:06;;;;;;;9.4;4.8;;;;;;;4.2;86.3;98890;;;;
2023/04/02 19:54:07;;;;;;;7.6;4.3;;;;;;;4.2;85.9;98890;;;;
2023/04/02 20:05:06;;;;;;;7.6;4.3;;;;;;;4.2;85;98900;;;;
2023/04/02 20:15:06;;;;;;;7.6;4.3;;;;;;;4.1;84.3;98890;;;;
2023/04/02 20:26:06;;;;;;;6.6;3.9;;;;;;;4;84.7;98900;;;;
2023/04/02 20:36:06;;;;;;;6.6;3.9;;;;;;;4;85;98910;;;;
2023/04/02 20:46:06;;;;;;;6.6;3.9;;;;;;;3.9;84.6;98920;;;;
2023/04/02 20:57:07;;;;;;;6.7;3.7;;;;;;;3.8;84.5;98920;;;;
2023/04/02 21:08:07;;;;;;;6.7;3.7;;;;;;;3.9;85.1;98930;;;;
2023/04/02 21:18:06;;;;;;;6.7;3.7;;;;;;;3.9;84.7;98940;;;;
2023/04/02 21:28:07;;;;;;;6.5;2.9;;;;;;;3.8;84.3;98940;;;;
2023/04/02 21:38:06;;;;;;;6.5;2.9;;;;;;;3.6;83.8;98940;;;;
2023/04/02 21:49:07;;;;;;;3.6;1.8;;;;;;;3.6;84.5;98950;;;;
2023/04/02 22:00:10;;;;;;;3.6;1.8;;;;;;;3.5;84.5;98950;;;;
2023/04/02 22:11:07;;;;;;;3.6;1.8;;;;;;;3.4;85.3;98960;;;;
2023/04/02 22:21:07;;;;;;;4.1;2.1;;;;;;;3.4;85.1;98970;;;;
2023/04/02 22:32:07;;;;;;;4.1;2.1;;;;;;;3.3;84.9;98970;;;;
2023/04/02 22:42:07;;;;;;;4.1;2.1;;;;;;;3.4;85.2;98980;;;;
2023/04/02 22:53:07;;;;;;;4.4;2.3;;;;;;;3.3;85.4;98990;;;;
2023/04/02 23:04:06;;;;;;;4.4;2.3;;;;;;;3.2;85.2;98990;;;;
2023/04/02 23:14:07;;;;;;;4.4;2.3;;;;;;;3.1;85.3;99000;;;;
2023/04/02 23:25:06;;;;;;;3.7;1.6;;;;;;;3;86.2;99000;;;;
2023/04/02 23:35:07;;;;;;;3.7;1.6;;;;;;;2.9;86.5;99000;;;;
2023/04/02 23:45:07;;;;;;;3.7;1.6;;;;;;;2.7;86.8;99000;;;;
2023/04/02 23:56:07;;;;;;;4.8;2.1;;;;;;;2.7;86.8;99000;;;;
